Time;durP1;ratioP1;P1;durP2;ratioP2;P2;SDS_P1;SDS_P2;PMS_P1;PMS_P2;Temp;Humidity;BMP_temperature;BMP_pressure;BME280_temperature;BME280_humidity;BME280_pressure;Samples;Min_cycle;Max_cycle;Signal;HPM_P1;HPM_P2
2023/06/16 00:00:19;;;;;;;7.83;2.47;;;23.80;99.90;;;;;;4939266;29;20204;-90
2023/06/16 00:02:50;;;;;;;8.00;3.13;;;24.20;99.90;;;;;;4937926;29;20233;-90
2023/06/16 00:05:21;;;;;;;10.77;3.10;;;24.20;99.90;;;;;;4938285;29;20204;-90
2023/06/16 00:07:53;;;;;;;8.23;2.73;;;24.00;99.90;;;;;;4940416;29;20244;-91
2023/06/16 00:10:27;;;;;;;6.57;2.77;;;23.90;99.90;;;;;;4938614;29;20224;-92
2023/06/16 00:12:59;;;;;;;11.77;3.17;;;24.00;99.90;;;;;;4939227;29;20214;-89
2023/06/16 00:15:30;;;;;;;6.50;2.90;;;24.20;99.90;;;;;;4939034;29;20211;-90
2023/06/16 00:18:02;;;;;;;7.13;2.67;;;24.40;99.90;;;;;;4936076;29;20211;-90
2023/06/16 00:20:34;;;;;;;10.07;3.07;;;24.70;99.90;;;;;;4937275;29;20235;-90
2023/06/16 00:23:08;;;;;;;8.87;3.03;;;24.40;99.90;;;;;;4940105;29;20216;-90
2023/06/16 00:25:41;;;;;;;7.93;2.77;;;23.90;99.90;;;;;;4940013;29;20621;-91
2023/06/16 00:28:13;;;;;;;7.07;2.60;;;23.70;99.90;;;;;;4937233;29;20219;-90
2023/06/16 00:30:47;;;;;;;8.30;3.00;;;23.60;99.90;;;;;;4938607;29;20212;-90
2023/06/16 00:33:18;;;;;;;10.33;2.87;;;23.50;99.90;;;;;;4939693;29;20211;-89
2023/06/16 00:35:52;;;;;;;10.13;3.20;;;23.60;99.90;;;;;;4942486;29;20223;-89
2023/06/16 00:38:23;;;;;;;10.43;3.00;;;23.70;99.90;;;;;;4941388;29;20220;-89
2023/06/16 00:40:58;;;;;;;8.13;2.80;;;23.80;99.90;;;;;;4941405;29;20231;-89
2023/06/16 00:43:29;;;;;;;8.67;2.80;;;23.90;99.90;;;;;;4941238;29;20205;-89
2023/06/16 00:46:01;;;;;;;8.87;2.93;;;24.20;99.90;;;;;;4937316;29;20660;-89
2023/06/16 00:48:32;;;;;;;7.83;2.70;;;24.50;99.90;;;;;;4926112;29;20550;-89
2023/06/16 00:51:04;;;;;;;6.53;2.63;;;25.00;99.90;;;;;;4918338;29;20296;-90
2023/06/16 00:53:35;;;;;;;7.40;2.63;;;25.60;98.70;;;;;;4929738;29;20227;-90
2023/06/16 00:56:10;;;;;;;8.27;2.70;;;25.90;99.20;;;;;;4938338;29;20316;-90
2023/06/16 00:58:42;;;;;;;8.93;2.53;;;26.00;97.80;;;;;;4936315;29;20231;-90
2023/06/16 01:01:14;;;;;;;7.30;3.47;;;25.40;96.90;;;;;;4930359;29;20217;-90
2023/06/16 01:03:46;;;;;;;7.23;2.63;;;25.70;97.90;;;;;;4935744;29;20226;-89
2023/06/16 01:06:29;;;;;;;5.73;2.30;;;26.30;97.60;;;;;;4938206;29;20307;-90
2023/06/16 01:09:08;;;;;;;6.10;2.60;;;26.20;96.30;;;;;;4944687;29;20223;-90
2023/06/16 01:11:50;;;;;;;7.63;2.47;;;26.30;96.20;;;;;;4940853;29;20208;-90
2023/06/16 01:14:25;;;;;;;7.07;2.93;;;26.70;96.40;;;;;;4935523;29;20236;-91
2023/06/16 01:16:59;;;;;;;6.30;2.47;;;26.30;94.70;;;;;;4940960;29;20203;-91
2023/06/16 01:19:39;;;;;;;8.90;3.13;;;26.10;95.80;;;;;;4944411;29;20738;-88
2023/06/16 01:22:23;;;;;;;7.80;2.97;;;26.00;95.90;;;;;;4941952;29;20215;-89
2023/06/16 01:25:03;;;;;;;8.63;2.53;;;26.70;94.40;;;;;;4941799;29;20291;-90
2023/06/16 01:27:37;;;;;;;5.60;2.93;;;27.30;93.70;;;;;;4938962;29;20672;-90
2023/06/16 01:30:10;;;;;;;9.20;2.77;;;27.30;92.80;;;;;;4940964;29;20244;-89
2023/06/16 01:32:42;;;;;;;6.87;2.67;;;27.10;94.50;;;;;;4939881;29;20641;-89
2023/06/16 01:35:14;;;;;;;6.30;2.63;;;27.00;92.70;;;;;;4940445;29;20617;-90
2023/06/16 01:37:46;;;;;;;7.07;2.80;;;27.20;93.40;;;;;;4941118;29;20677;-90
2023/06/16 01:40:22;;;;;;;7.30;2.70;;;27.30;93.20;;;;;;4940183;29;20204;-91
2023/06/16 01:42:56;;;;;;;7.13;2.30;;;27.50;91.90;;;;;;4941655;29;20236;-90
2023/06/16 01:45:33;;;;;;;6.77;3.00;;;26.90;91.50;;;;;;4933834;29;20277;-90
2023/06/16 01:48:06;;;;;;;6.33;2.20;;;26.70;92.70;;;;;;4920153;29;20213;-90
2023/06/16 01:50:38;;;;;;;6.23;2.57;;;26.10;91.80;;;;;;4923015;29;20296;-91
2023/06/16 01:53:09;;;;;;;7.37;3.20;;;26.20;92.30;;;;;;4923640;29;20219;-90
2023/06/16 01:55:52;;;;;;;6.63;3.00;;;26.20;91.30;;;;;;4921752;29;20233;-91
2023/06/16 01:58:28;;;;;;;9.87;2.93;;;25.20;92.30;;;;;;4923502;29;20220;-90
2023/06/16 02:01:04;;;;;;;5.77;2.50;;;25.50;92.30;;;;;;4941438;29;20215;-89
2023/06/16 02:03:38;;;;;;;6.57;3.00;;;25.70;92.60;;;;;;4939644;29;20294;-90
2023/06/16 02:06:17;;;;;;;7.40;2.60;;;25.70;92.90;;;;;;4938944;29;20582;-90
2023/06/16 02:08:50;;;;;;;9.03;2.50;;;24.60;92.90;;;;;;4924910;29;20216;-90
2023/06/16 02:11:24;;;;;;;5.07;2.60;;;24.40;94.00;;;;;;4921148;29;20295;-91
2023/06/16 02:13:56;;;;;;;6.73;2.40;;;24.20;94.70;;;;;;4939045;29;20208;-91
2023/06/16 02:16:29;;;;;;;8.93;2.93;;;23.90;93.60;;;;;;4912391;29;20213;-91
2023/06/16 02:19:01;;;;;;;6.27;2.60;;;23.70;93.70;;;;;;4922836;29;20270;-89
2023/06/16 02:21:32;;;;;;;4.30;2.40;;;23.60;94.30;;;;;;4939191;29;20295;-91
2023/06/16 02:24:05;;;;;;;7.53;2.50;;;23.60;95.40;;;;;;4919455;29;20252;-91
2023/06/16 02:26:39;;;;;;;6.30;2.50;;;23.40;93.80;;;;;;4925505;29;20223;-90
2023/06/16 02:29:11;;;;;;;7.07;2.10;;;23.20;93.30;;;;;;4919634;29;20295;-90
2023/06/16 02:31:47;;;;;;;5.33;2.57;;;22.90;94.70;;;;;;4918970;29;20214;-90
2023/06/16 02:34:20;;;;;;;6.50;2.37;;;22.70;94.40;;;;;;4920918;29;20248;-89
2023/06/16 02:36:52;;;;;;;5.37;2.13;;;22.50;96.30;;;;;;4920448;29;20220;-90
2023/06/16 02:39:23;;;;;;;4.93;2.63;;;22.40;96.60;;;;;;4936815;29;20708;-91
2023/06/16 02:41:57;;;;;;;10.00;2.53;;;22.10;95.70;;;;;;4941588;29;20728;-90
2023/06/16 02:44:28;;;;;;;6.40;2.50;;;22.10;95.10;;;;;;4951668;29;20232;-90
2023/06/16 02:47:01;;;;;;;7.63;2.27;;;22.10;94.80;;;;;;4960801;28;20215;-92
2023/06/16 02:49:33;;;;;;;5.70;2.23;;;22.20;95.40;;;;;;4945017;28;20556;-91
2023/06/16 02:52:05;;;;;;;8.83;2.33;;;22.10;96.10;;;;;;4940777;29;20217;-90
2023/06/16 02:54:36;;;;;;;6.77;2.50;;;22.10;96.10;;;;;;4938922;29;20232;-91
2023/06/16 02:57:11;;;;;;;4.93;2.10;;;21.90;96.20;;;;;;4938574;29;20228;-89
2023/06/16 02:59:43;;;;;;;4.30;2.20;;;21.90;96.10;;;;;;4936718;29;20214;-90
2023/06/16 03:02:15;;;;;;;6.83;1.97;;;21.80;95.10;;;;;;4938440;29;20208;-91
2023/06/16 03:04:46;;;;;;;6.53;2.50;;;21.70;96.40;;;;;;4939366;29;20209;-91
2023/06/16 03:07:19;;;;;;;7.50;2.50;;;21.60;96.90;;;;;;4940395;29;20327;-90
2023/06/16 03:09:50;;;;;;;7.07;2.93;;;21.50;96.90;;;;;;4939196;29;20208;-91
2023/06/16 03:12:24;;;;;;;9.47;2.50;;;21.40;97.40;;;;;;4938669;29;20299;-91
2023/06/16 03:14:55;;;;;;;6.23;2.60;;;21.20;98.60;;;;;;4940118;29;20330;-91
2023/06/16 03:17:28;;;;;;;6.63;2.30;;;21.00;98.00;;;;;;4936856;29;20219;-92
2023/06/16 03:20:00;;;;;;;6.07;2.03;;;20.80;97.40;;;;;;4920907;29;20205;-90
2023/06/16 03:22:31;;;;;;;4.87;1.83;;;20.60;98.80;;;;;;4927530;29;20209;-90
2023/06/16 03:25:04;;;;;;;7.20;2.27;;;20.50;98.90;;;;;;4939627;29;20216;-90
2023/06/16 03:27:40;;;;;;;5.30;2.27;;;20.40;99.90;;;;;;4936985;29;20224;-90
2023/06/16 03:30:13;;;;;;;8.07;2.57;;;20.20;99.90;;;;;;4938194;29;20649;-90
2023/06/16 03:32:45;;;;;;;5.43;2.30;;;20.00;99.90;;;;;;4937753;29;20212;-90
2023/06/16 03:35:17;;;;;;;6.70;2.17;;;19.80;99.90;;;;;;4937806;29;20244;-91
2023/06/16 03:37:49;;;;;;;7.03;2.47;;;19.60;99.90;;;;;;4936745;29;20312;-91
2023/06/16 03:40:20;;;;;;;5.97;2.30;;;19.60;99.90;;;;;;4937978;29;20223;-91
2023/06/16 03:42:53;;;;;;;6.83;2.37;;;19.50;99.90;;;;;;4938040;29;20228;-92
2023/06/16 03:45:24;;;;;;;5.63;2.40;;;19.40;99.90;;;;;;4942498;29;20218;-87
2023/06/16 03:47:56;;;;;;;6.97;2.47;;;19.40;99.90;;;;;;4943168;29;20215;-90
2023/06/16 03:50:27;;;;;;;6.53;2.30;;;19.30;99.90;;;;;;4942778;29;20227;-91
2023/06/16 03:52:59;;;;;;;6.83;2.50;;;19.20;99.90;;;;;;4943797;29;20232;-90
2023/06/16 03:55:45;;;;;;;6.37;2.40;;;19.10;99.90;;;;;;4943549;29;20727;-91
2023/06/16 03:58:18;;;;;;;8.93;2.90;;;19.00;99.90;;;;;;4938149;29;20232;-90
2023/06/16 04:00:50;;;;;;;5.17;2.30;;;18.90;99.90;;;;;;4938681;29;20613;-89
2023/06/16 04:03:21;;;;;;;8.50;2.50;;;18.90;99.90;;;;;;4918944;29;20232;-90
2023/06/16 04:05:52;;;;;;;8.97;2.87;;;18.80;99.90;;;;;;4918330;29;20220;-91
2023/06/16 04:08:24;;;;;;;7.83;2.50;;;18.80;99.90;;;;;;4938980;28;20231;-90
2023/06/16 04:10:58;;;;;;;9.27;2.70;;;18.80;99.90;;;;;;4936032;29;20291;-90
2023/06/16 04:13:32;;;;;;;7.77;2.83;;;18.80;99.90;;;;;;4948855;29;20291;-87
2023/06/16 04:16:03;;;;;;;11.50;4.20;;;18.80;99.90;;;;;;4942409;29;20238;-90
2023/06/16 04:18:35;;;;;;;11.17;2.97;;;18.80;99.90;;;;;;4943681;29;20279;-93
2023/06/16 04:21:06;;;;;;;8.33;3.33;;;18.70;99.90;;;;;;4950874;28;20209;-93
2023/06/16 04:23:38;;;;;;;10.70;3.43;;;18.60;99.90;;;;;;4952655;28;20220;-95
2023/06/16 04:26:09;;;;;;;8.10;3.10;;;18.60;99.90;;;;;;4954240;28;20187;-95
2023/06/16 04:28:55;;;;;;;9.93;3.00;;;18.50;99.90;;;;;;4962818;28;20211;-93
2023/06/16 04:31:28;;;;;;;9.97;3.20;;;18.60;99.90;;;;;;4929171;29;20259;-95
2023/06/16 04:34:03;;;;;;;8.03;2.80;;;18.60;99.90;;;;;;4945304;29;20219;-95
2023/06/16 04:36:34;;;;;;;10.17;3.57;;;18.60;99.90;;;;;;4934151;29;20704;-94
2023/06/16 04:39:06;;;;;;;13.37;3.63;;;18.60;99.90;;;;;;4955034;28;20204;-96
2023/06/16 04:41:38;;;;;;;9.20;3.50;;;18.50;99.90;;;;;;4957906;28;20211;-94
2023/06/16 04:44:12;;;;;;;10.43;3.27;;;18.40;99.90;;;;;;4953385;28;20203;-92
2023/06/16 04:46:44;;;;;;;9.60;3.10;;;18.30;99.90;;;;;;4949032;29;20280;-95
2023/06/16 04:49:18;;;;;;;10.70;3.03;;;18.30;99.90;;;;;;4951657;29;20231;-94
2023/06/16 04:51:50;;;;;;;9.57;3.10;;;18.30;99.90;;;;;;4933835;29;20309;-95
2023/06/16 04:54:21;;;;;;;10.13;3.33;;;18.20;99.90;;;;;;4958698;29;20185;-94
2023/06/16 04:56:52;;;;;;;10.93;3.30;;;18.20;99.90;;;;;;4957138;29;21110;-93
2023/06/16 04:59:26;;;;;;;8.23;3.00;;;18.20;99.90;;;;;;4946048;29;20205;-94
2023/06/16 05:01:57;;;;;;;9.10;3.33;;;18.20;99.90;;;;;;4949471;29;20276;-94
2023/06/16 05:07:15;;;;;;;8.40;2.80;;;18.10;99.90;;;;;;4924614;29;20446;-94
2023/06/16 05:09:47;;;;;;;8.90;3.10;;;18.00;99.90;;;;;;4920285;29;20220;-94
2023/06/16 05:12:18;;;;;;;9.57;3.33;;;17.90;99.90;;;;;;4935855;29;20204;-95
2023/06/16 05:14:54;;;;;;;9.83;3.23;;;17.90;99.90;;;;;;4938941;29;20291;-96
2023/06/16 05:17:30;;;;;;;7.83;3.00;;;17.80;99.90;;;;;;4940096;29;20249;-94
2023/06/16 05:20:03;;;;;;;7.60;3.10;;;17.70;99.90;;;;;;4940051;29;20196;-93
2023/06/16 05:22:35;;;;;;;11.03;3.07;;;17.70;99.90;;;;;;4937601;29;20204;-94
2023/06/16 05:25:08;;;;;;;12.10;3.07;;;17.60;99.90;;;;;;4938415;29;20691;-94
2023/06/16 05:27:40;;;;;;;8.00;3.10;;;17.50;99.90;;;;;;4936904;29;20213;-95
2023/06/16 05:30:17;;;;;;;9.43;2.97;;;17.50;99.90;;;;;;4938536;29;20213;-93
2023/06/16 05:32:51;;;;;;;7.87;2.83;;;17.40;99.90;;;;;;4939571;29;20636;-95
2023/06/16 05:35:25;;;;;;;8.30;2.43;;;17.40;99.90;;;;;;4946282;28;20215;-95
2023/06/16 05:37:56;;;;;;;10.07;3.37;;;17.30;99.90;;;;;;4918010;29;20240;-95
2023/06/16 05:40:28;;;;;;;8.43;3.23;;;17.30;99.90;;;;;;4934031;29;20204;-95
2023/06/16 05:43:00;;;;;;;10.37;2.90;;;17.30;99.90;;;;;;4933026;29;20212;-95
2023/06/16 05:45:35;;;;;;;12.50;2.93;;;17.30;99.90;;;;;;4937811;29;20292;-94
2023/06/16 05:48:07;;;;;;;10.17;3.03;;;17.30;99.90;;;;;;4932718;29;20632;-94
2023/06/16 05:50:40;;;;;;;9.63;2.90;;;17.30;99.90;;;;;;4924246;29;20646;-93
2023/06/16 05:53:11;;;;;;;7.57;2.90;;;17.30;99.90;;;;;;4938007;29;20564;-93
2023/06/16 05:55:43;;;;;;;12.47;3.37;;;17.20;99.90;;;;;;4932580;29;20587;-96
2023/06/16 05:58:14;;;;;;;7.80;3.00;;;17.10;99.90;;;;;;4927387;29;20232;-95
2023/06/16 06:00:47;;;;;;;7.27;2.90;;;17.10;99.90;;;;;;4941333;29;20216;-95
2023/06/16 06:03:19;;;;;;;11.67;3.40;;;17.00;99.90;;;;;;4938177;29;20255;-94
2023/06/16 06:05:50;;;;;;;9.40;3.13;;;17.00;99.90;;;;;;4942771;29;20711;-94
2023/06/16 06:08:26;;;;;;;12.27;3.43;;;16.90;99.90;;;;;;4928740;29;20701;-94
2023/06/16 06:11:01;;;;;;;10.60;2.67;;;16.80;99.90;;;;;;4939846;29;20294;-93
2023/06/16 06:13:33;;;;;;;10.97;2.97;;;16.70;99.90;;;;;;4941278;29;20218;-95
2023/06/16 06:16:07;;;;;;;7.43;3.00;;;16.70;99.90;;;;;;4931618;29;20219;-93
2023/06/16 06:18:43;;;;;;;12.13;3.53;;;16.60;99.90;;;;;;4933242;29;20280;-94
2023/06/16 06:21:15;;;;;;;11.17;2.73;;;16.50;99.90;;;;;;4921659;29;20212;-94
2023/06/16 06:23:47;;;;;;;8.27;3.23;;;16.50;99.90;;;;;;4923812;29;20209;-94
2023/06/16 06:26:18;;;;;;;8.73;2.83;;;16.40;99.90;;;;;;4934904;29;20260;-92
2023/06/16 06:28:50;;;;;;;8.17;2.87;;;16.30;99.90;;;;;;4924709;29;20223;-93
2023/06/16 06:31:24;;;;;;;7.87;2.73;;;16.30;99.90;;;;;;4932283;29;20311;-93
2023/06/16 06:33:55;;;;;;;10.57;3.10;;;16.30;99.90;;;;;;4929461;29;20313;-95
2023/06/16 06:36:28;;;;;;;9.97;3.07;;;16.40;99.90;;;;;;4933469;29;20223;-95
2023/06/16 06:39:00;;;;;;;12.13;2.90;;;16.40;99.90;;;;;;4940303;29;20660;-94
2023/06/16 06:41:32;;;;;;;10.50;3.23;;;16.40;99.90;;;;;;4939453;29;20240;-94
2023/06/16 06:44:04;;;;;;;7.13;2.53;;;16.20;99.90;;;;;;4938057;29;20208;-94
2023/06/16 06:46:37;;;;;;;9.03;2.97;;;16.20;99.90;;;;;;4939905;29;20213;-93
2023/06/16 06:49:10;;;;;;;7.63;2.90;;;16.10;99.90;;;;;;4934623;29;20283;-95
2023/06/16 06:51:42;;;;;;;9.80;3.37;;;16.00;99.90;;;;;;4933006;29;20267;-95
2023/06/16 06:54:14;;;;;;;8.30;2.67;;;15.90;99.90;;;;;;4935733;29;20208;-95
2023/06/16 06:56:46;;;;;;;12.03;2.97;;;15.80;99.90;;;;;;4939730;29;20224;-94
2023/06/16 06:59:18;;;;;;;8.87;3.20;;;15.70;99.90;;;;;;4942208;29;20207;-91
2023/06/16 07:01:52;;;;;;;10.43;3.10;;;15.70;99.90;;;;;;4940079;29;20219;-91
2023/06/16 07:04:24;;;;;;;9.37;2.70;;;15.70;99.90;;;;;;4944825;29;20267;-90
2023/06/16 07:06:55;;;;;;;11.83;2.87;;;15.60;99.90;;;;;;4947124;29;20296;-90
2023/06/16 07:09:27;;;;;;;7.93;3.17;;;15.60;99.90;;;;;;4934908;29;20240;-90
2023/06/16 07:12:00;;;;;;;8.73;2.97;;;15.50;99.90;;;;;;4937009;29;20212;-91
2023/06/16 07:14:32;;;;;;;7.27;2.97;;;15.50;99.90;;;;;;4923648;29;20210;-90
2023/06/16 07:17:05;;;;;;;8.00;2.70;;;15.40;99.90;;;;;;4937221;29;20232;-91
2023/06/16 07:19:38;;;;;;;9.10;3.13;;;15.40;99.90;;;;;;4934998;29;20219;-90
2023/06/16 07:22:10;;;;;;;9.50;3.23;;;15.30;99.90;;;;;;4938346;29;20231;-90
2023/06/16 07:24:41;;;;;;;7.67;2.87;;;15.20;99.90;;;;;;4929809;29;20240;-90
2023/06/16 07:27:13;;;;;;;9.27;3.00;;;15.20;99.90;;;;;;4928227;29;20219;-90
2023/06/16 07:29:45;;;;;;;6.50;2.67;;;15.10;99.90;;;;;;4919575;29;20217;-89
2023/06/16 07:32:18;;;;;;;10.93;2.80;;;15.00;99.90;;;;;;4931494;29;20227;-90
2023/06/16 07:34:52;;;;;;;8.50;2.70;;;15.00;99.90;;;;;;4928989;29;20218;-92
2023/06/16 07:37:23;;;;;;;7.53;2.17;;;14.90;99.90;;;;;;4937316;29;20228;-90
2023/06/16 07:39:55;;;;;;;9.50;2.93;;;14.90;99.90;;;;;;4937830;29;20196;-90
2023/06/16 07:42:26;;;;;;;9.77;2.77;;;14.80;99.90;;;;;;4938100;29;20220;-90
2023/06/16 07:44:59;;;;;;;8.77;2.80;;;14.80;99.90;;;;;;4938430;29;20207;-90
2023/06/16 07:47:32;;;;;;;9.63;3.03;;;14.70;99.90;;;;;;4933932;29;20271;-90
2023/06/16 07:50:03;;;;;;;7.53;2.70;;;14.70;99.90;;;;;;4949856;28;20231;-90
2023/06/16 07:52:35;;;;;;;8.90;3.00;;;14.60;99.90;;;;;;4956663;28;20219;-91
2023/06/16 07:55:07;;;;;;;8.23;2.97;;;14.60;99.90;;;;;;4948801;28;20209;-90
2023/06/16 07:57:38;;;;;;;6.37;2.90;;;14.60;99.90;;;;;;4936157;29;20682;-90
2023/06/16 08:00:13;;;;;;;7.67;2.77;;;14.60;99.90;;;;;;4929670;29;20236;-91
2023/06/16 08:02:46;;;;;;;11.80;3.00;;;14.60;99.90;;;;;;4937497;29;20311;-90
2023/06/16 08:05:18;;;;;;;11.70;3.03;;;14.60;99.90;;;;;;4937388;29;20224;-89
2023/06/16 08:07:50;;;;;;;9.23;3.50;;;14.70;99.90;;;;;;4942995;29;20668;-90
2023/06/16 08:10:23;;;;;;;9.57;3.00;;;14.70;99.90;;;;;;4926458;29;20284;-91
2023/06/16 08:12:55;;;;;;;9.73;2.83;;;14.80;99.90;;;;;;4937332;29;20254;-90
2023/06/16 08:15:27;;;;;;;9.67;2.87;;;14.80;99.90;;;;;;4937293;29;20246;-90
2023/06/16 08:18:00;;;;;;;8.83;2.90;;;14.90;99.90;;;;;;4935395;29;20654;-91
2023/06/16 08:20:32;;;;;;;9.93;3.03;;;14.90;99.90;;;;;;4935990;29;20616;-90
2023/06/16 08:23:03;;;;;;;12.80;3.70;;;14.90;99.90;;;;;;4937226;29;20243;-90
2023/06/16 08:25:35;;;;;;;11.23;3.17;;;14.90;99.90;;;;;;4931649;29;20661;-91
2023/06/16 08:28:07;;;;;;;8.37;3.17;;;15.00;99.90;;;;;;4936503;29;20212;-90
2023/06/16 08:30:40;;;;;;;12.03;2.87;;;15.00;99.90;;;;;;4927371;29;20209;-90
2023/06/16 08:33:14;;;;;;;8.30;2.90;;;15.00;99.90;;;;;;4936898;29;20296;-91
2023/06/16 08:35:46;;;;;;;8.47;3.33;;;15.00;99.90;;;;;;4937402;29;20235;-91
2023/06/16 08:38:17;;;;;;;8.43;2.47;;;15.10;99.90;;;;;;4936358;29;20275;-90
2023/06/16 08:40:49;;;;;;;9.20;2.90;;;15.10;99.90;;;;;;4937174;29;20283;-91
2023/06/16 08:43:25;;;;;;;10.90;3.73;;;15.10;99.90;;;;;;4934258;29;20637;-91
2023/06/16 08:45:57;;;;;;;13.00;3.13;;;15.10;99.90;;;;;;4936757;29;20207;-90
2023/06/16 08:48:34;;;;;;;8.70;2.93;;;15.20;99.90;;;;;;4935632;29;20211;-91
2023/06/16 08:51:07;;;;;;;13.97;3.53;;;15.10;99.90;;;;;;4934910;29;20219;-90
2023/06/16 08:53:40;;;;;;;8.97;2.90;;;15.00;99.90;;;;;;4937309;29;20611;-91
2023/06/16 08:56:13;;;;;;;7.27;2.63;;;15.00;99.90;;;;;;4937152;29;20264;-90
2023/06/16 08:58:46;;;;;;;7.33;3.00;;;14.90;99.90;;;;;;4936250;29;20228;-89
2023/06/16 09:01:18;;;;;;;10.37;2.97;;;14.80;99.90;;;;;;4936831;29;20564;-90
2023/06/16 09:03:52;;;;;;;8.67;3.10;;;14.80;99.90;;;;;;4921102;29;20211;-91
2023/06/16 09:06:25;;;;;;;8.47;2.90;;;14.80;99.90;;;;;;4918007;29;20240;-91
2023/06/16 09:08:56;;;;;;;12.47;3.50;;;14.70;99.90;;;;;;4917511;29;20301;-89
2023/06/16 09:11:28;;;;;;;8.27;3.10;;;14.70;99.90;;;;;;4931885;29;20208;-90
2023/06/16 09:14:00;;;;;;;8.80;3.33;;;14.60;99.90;;;;;;4948712;29;20279;-91
2023/06/16 09:16:31;;;;;;;10.93;3.23;;;14.50;99.90;;;;;;4953330;29;20203;-91
2023/06/16 09:19:12;;;;;;;6.50;2.40;;;14.50;99.90;;;;;;4939929;29;20232;-90
2023/06/16 09:21:45;;;;;;;9.97;3.60;;;14.40;99.90;;;;;;4935864;29;20212;-89
2023/06/16 09:24:27;;;;;;;9.47;2.83;;;14.30;99.90;;;;;;4930237;29;20215;-90
2023/06/16 09:27:00;;;;;;;13.00;3.23;;;14.30;99.90;;;;;;4934991;29;20299;-90
2023/06/16 09:29:32;;;;;;;8.67;2.70;;;14.30;99.90;;;;;;4938722;29;20209;-91
2023/06/16 09:32:12;;;;;;;10.57;3.13;;;14.40;99.90;;;;;;4936068;29;20262;-91
2023/06/16 09:34:46;;;;;;;12.30;3.20;;;14.40;99.90;;;;;;4942654;29;20216;-91
2023/06/16 09:37:22;;;;;;;8.20;2.63;;;14.40;99.90;;;;;;4920957;29;20240;-90
2023/06/16 09:39:53;;;;;;;13.93;3.50;;;14.50;99.90;;;;;;4924773;29;20231;-90
2023/06/16 09:42:29;;;;;;;8.73;3.53;;;14.60;99.90;;;;;;4939716;29;20212;-89
2023/06/16 09:45:01;;;;;;;7.77;2.67;;;14.60;99.90;;;;;;4940145;29;20649;-90
2023/06/16 09:47:32;;;;;;;10.23;3.10;;;14.60;99.90;;;;;;4930803;29;20209;-91
2023/06/16 09:50:08;;;;;;;9.57;3.30;;;14.60;99.90;;;;;;4920505;29;20594;-90
2023/06/16 09:52:41;;;;;;;8.57;3.00;;;14.50;99.90;;;;;;4938008;29;20227;-91
2023/06/16 09:55:13;;;;;;;8.03;3.23;;;14.50;99.90;;;;;;4936491;29;20299;-90
2023/06/16 09:57:46;;;;;;;8.40;2.67;;;14.50;99.90;;;;;;4931535;29;20212;-90
2023/06/16 10:00:18;;;;;;;12.07;3.30;;;14.50;99.90;;;;;;4936825;29;20245;-90
2023/06/16 10:02:51;;;;;;;12.57;2.87;;;14.50;99.90;;;;;;4940715;29;20209;-89
2023/06/16 10:05:27;;;;;;;11.90;3.53;;;14.50;99.90;;;;;;4941514;29;20224;-89
2023/06/16 10:07:58;;;;;;;11.27;3.20;;;14.60;99.90;;;;;;4945202;29;20239;-90
2023/06/16 10:10:34;;;;;;;9.67;3.23;;;14.60;99.90;;;;;;4956244;29;20222;-90
2023/06/16 10:13:08;;;;;;;8.33;2.87;;;14.60;99.90;;;;;;4959407;28;20271;-90
2023/06/16 10:15:41;;;;;;;7.30;2.70;;;14.60;99.90;;;;;;4950358;29;20218;-91
2023/06/16 10:18:16;;;;;;;9.50;3.07;;;14.50;99.90;;;;;;4941154;29;20204;-91
2023/06/16 10:20:50;;;;;;;9.57;3.10;;;14.60;99.90;;;;;;4941752;29;20223;-91
2023/06/16 10:23:21;;;;;;;7.63;2.90;;;14.50;99.90;;;;;;4940848;29;20222;-90
2023/06/16 10:25:53;;;;;;;9.83;3.03;;;14.50;99.90;;;;;;4941548;29;20212;-90
2023/06/16 10:28:24;;;;;;;8.60;3.00;;;14.50;99.90;;;;;;4939634;29;21364;-90
2023/06/16 10:30:57;;;;;;;9.57;2.97;;;14.50;99.90;;;;;;4933828;29;20205;-90
2023/06/16 10:33:29;;;;;;;9.47;3.03;;;14.50;99.90;;;;;;4920710;29;20304;-90
2023/06/16 10:36:04;;;;;;;12.90;3.17;;;14.40;99.90;;;;;;4938758;29;20574;-91
2023/06/16 10:38:42;;;;;;;13.83;3.17;;;14.40;99.90;;;;;;4938110;29;20228;-90
2023/06/16 10:41:17;;;;;;;9.63;2.90;;;14.30;99.90;;;;;;4927572;29;20215;-90
2023/06/16 10:43:48;;;;;;;9.07;2.87;;;14.30;99.90;;;;;;4939123;29;20667;-90
2023/06/16 10:46:21;;;;;;;10.87;3.00;;;14.20;99.90;;;;;;4933152;29;20209;-90
2023/06/16 10:49:20;;;;;;;8.67;2.80;;;14.20;99.90;;;;;;4925360;29;20242;-91
2023/06/16 10:51:56;;;;;;;7.90;2.50;;;14.10;99.90;;;;;;4938831;29;20232;-91
2023/06/16 10:54:45;;;;;;;11.37;3.03;;;14.10;99.90;;;;;;4938524;29;20565;-91
2023/06/16 10:57:16;;;;;;;9.03;2.73;;;14.00;99.90;;;;;;4924538;29;20208;-90
2023/06/16 10:59:59;;;;;;;8.27;2.67;;;14.00;99.90;;;;;;4933831;29;20246;-90
2023/06/16 11:02:32;;;;;;;10.70;2.87;;;13.90;99.90;;;;;;4938553;29;20204;-90
2023/06/16 11:05:18;;;;;;;8.10;2.70;;;13.80;99.90;;;;;;4925362;29;20212;-90
2023/06/16 11:08:15;;;;;;;7.20;3.20;;;13.80;99.90;;;;;;4918354;29;20226;-90
2023/06/16 11:10:51;;;;;;;12.33;2.67;;;13.70;99.90;;;;;;4926078;29;20961;-90
2023/06/16 11:13:25;;;;;;;7.67;2.80;;;13.70;99.90;;;;;;4919549;29;20216;-91
2023/06/16 11:15:56;;;;;;;8.13;2.70;;;13.60;99.90;;;;;;4919819;29;20560;-90
2023/06/16 11:18:29;;;;;;;7.13;2.90;;;13.60;99.90;;;;;;4923638;29;20307;-90
2023/06/16 11:21:01;;;;;;;11.00;2.70;;;13.60;99.90;;;;;;4941134;29;20239;-90
2023/06/16 11:23:36;;;;;;;11.77;3.50;;;13.60;99.90;;;;;;4954298;29;20205;-90
2023/06/16 11:26:10;;;;;;;7.27;2.87;;;13.50;99.90;;;;;;4945313;29;20204;-90
2023/06/16 11:28:43;;;;;;;11.57;2.87;;;13.40;99.90;;;;;;4936931;29;20211;-89
2023/06/16 11:31:15;;;;;;;6.70;2.80;;;13.20;99.90;;;;;;4936410;29;20226;-90
2023/06/16 11:33:47;;;;;;;8.43;2.90;;;13.20;99.90;;;;;;4918685;29;20252;-90
2023/06/16 11:36:21;;;;;;;12.03;3.33;;;13.10;99.90;;;;;;4934222;29;20712;-92
2023/06/16 11:38:57;;;;;;;9.70;3.10;;;13.10;99.90;;;;;;4935973;29;20219;-90
2023/06/16 11:41:30;;;;;;;8.97;3.13;;;13.10;99.90;;;;;;4937879;29;20218;-90
2023/06/16 11:44:02;;;;;;;7.73;2.90;;;13.00;99.90;;;;;;4925182;29;20623;-90
2023/06/16 11:46:35;;;;;;;9.43;3.47;;;13.00;99.90;;;;;;4923252;29;20205;-91
2023/06/16 11:49:06;;;;;;;10.37;3.20;;;13.00;99.90;;;;;;4939831;29;20286;-90
2023/06/16 11:51:39;;;;;;;9.17;3.07;;;12.90;99.90;;;;;;4922399;29;20702;-91
2023/06/16 11:54:12;;;;;;;7.47;3.27;;;12.80;99.90;;;;;;4923657;29;20205;-91
2023/06/16 11:56:44;;;;;;;10.87;3.70;;;12.80;99.90;;;;;;4940871;29;20216;-90
2023/06/16 11:59:16;;;;;;;9.70;3.00;;;12.80;99.90;;;;;;4941079;29;20228;-89
2023/06/16 12:01:47;;;;;;;10.80;3.20;;;12.70;99.90;;;;;;4933808;29;20217;-90
2023/06/16 12:04:20;;;;;;;8.23;3.10;;;12.60;99.90;;;;;;4926091;29;20201;-90
2023/06/16 12:06:52;;;;;;;9.80;2.47;;;12.40;99.90;;;;;;4936239;29;20223;-90
2023/06/16 12:09:36;;;;;;;8.03;3.07;;;12.40;99.90;;;;;;4935940;29;20239;-90
2023/06/16 12:12:10;;;;;;;6.67;2.90;;;12.40;99.90;;;;;;4937540;29;20220;-89
2023/06/16 12:14:42;;;;;;;11.77;3.17;;;12.30;99.90;;;;;;4937291;29;20213;-91
2023/06/16 12:17:14;;;;;;;7.73;2.60;;;12.30;99.90;;;;;;4937573;29;20208;-90
2023/06/16 12:19:47;;;;;;;11.67;3.17;;;12.40;99.90;;;;;;4936264;29;20945;-91
2023/06/16 12:22:20;;;;;;;8.20;2.83;;;12.40;99.90;;;;;;4930338;29;20219;-90
2023/06/16 12:24:54;;;;;;;8.60;2.43;;;12.30;99.90;;;;;;4932550;29;20681;-91
2023/06/16 12:27:26;;;;;;;8.27;3.27;;;12.20;99.90;;;;;;4918467;29;20264;-91
2023/06/16 12:29:59;;;;;;;13.97;3.37;;;12.20;99.90;;;;;;4918611;29;20205;-90
2023/06/16 12:32:35;;;;;;;10.20;2.40;;;12.30;99.90;;;;;;4934029;29;20217;-90
2023/06/16 12:35:07;;;;;;;10.93;3.00;;;12.30;99.90;;;;;;4939097;29;20224;-87
2023/06/16 12:37:42;;;;;;;10.57;3.20;;;12.30;99.90;;;;;;4918480;29;20221;-91
2023/06/16 12:40:16;;;;;;;8.53;2.70;;;12.30;99.90;;;;;;4920080;29;20263;-90
2023/06/16 12:42:48;;;;;;;8.50;2.97;;;12.30;99.90;;;;;;4929729;29;20223;-93
2023/06/16 12:45:21;;;;;;;9.60;3.40;;;12.30;99.90;;;;;;4927767;29;20235;-91
2023/06/16 12:47:52;;;;;;;10.97;3.37;;;12.40;99.90;;;;;;4938849;29;20224;-91
2023/06/16 12:50:24;;;;;;;9.60;3.27;;;12.40;99.90;;;;;;4936182;29;20236;-90
2023/06/16 12:52:56;;;;;;;11.13;3.20;;;12.50;99.90;;;;;;4935888;29;20212;-91
2023/06/16 12:55:29;;;;;;;10.23;3.90;;;12.50;99.90;;;;;;4918387;29;20212;-91
2023/06/16 12:58:01;;;;;;;14.37;3.63;;;12.60;99.90;;;;;;4936132;29;20303;-91
2023/06/16 13:00:32;;;;;;;13.30;3.23;;;12.60;99.90;;;;;;4944236;29;20208;-90
2023/06/16 13:03:04;;;;;;;10.37;3.43;;;12.70;99.90;;;;;;4941494;29;20208;-90
2023/06/16 13:05:36;;;;;;;13.93;3.80;;;12.80;99.90;;;;;;4929162;29;20623;-91
2023/06/16 13:08:07;;;;;;;13.87;4.00;;;12.90;99.90;;;;;;4943622;29;20212;-92
2023/06/16 13:10:41;;;;;;;10.67;3.53;;;13.00;99.90;;;;;;4944109;29;20657;-92
2023/06/16 13:13:13;;;;;;;15.13;3.80;;;13.10;99.90;;;;;;4945746;29;20212;-92
2023/06/16 13:15:44;;;;;;;9.17;4.00;;;13.20;99.90;;;;;;4935833;29;20211;-90